Time;durP1;ratioP1;P1;durP2;ratioP2;P2;SDS_P1;SDS_P2;PMS_P1;PMS_P2;Temp;Humidity;BMP_temperature;BMP_pressure;BME280_temperature;BME280_humidity;BME280_pressure;Samples;Min_cycle;Max_cycle;Signal;HPM_P1;HPM_P2
2022/05/27 00:01:54;;;;;;;5.82;2.20;;;;;;;;;;8315719;28;20049;-93
2022/05/27 00:05:56;;;;;;;8.30;2.25;;;;;;;;;;8330960;28;20049;-84
2022/05/27 00:10:00;;;;;;;2.60;2.13;;;;;;;;;;8328174;28;20049;-86
2022/05/27 00:14:03;;;;;;;4.00;2.55;;;;;;;;;;8329409;28;20045;-84
2022/05/27 00:18:06;;;;;;;6.07;2.38;;;;;;;;;;8321906;28;20045;-84
2022/05/27 00:22:09;;;;;;;3.15;2.28;;;;;;;;;;8330505;28;20073;-91
2022/05/27 00:26:13;;;;;;;3.90;2.20;;;;;;;;;;8327221;28;20045;-84
2022/05/27 00:30:16;;;;;;;3.83;2.20;;;;;;;;;;8329979;28;20122;-85
2022/05/27 00:34:19;;;;;;;4.18;2.35;;;;;;;;;;8329846;28;20056;-85
2022/05/27 00:38:22;;;;;;;3.33;2.20;;;;;;;;;;8328439;28;20068;-84
2022/05/27 00:42:28;;;;;;;5.63;2.20;;;;;;;;;;8329262;28;20561;-85
2022/05/27 00:46:34;;;;;;;5.20;2.65;;;;;;;;;;8325546;28;20501;-85
2022/05/27 00:50:42;;;;;;;3.65;2.22;;;;;;;;;;8327955;28;20541;-85
2022/05/27 00:54:46;;;;;;;5.40;2.28;;;;;;;;;;8330310;28;20072;-85
2022/05/27 00:58:54;;;;;;;3.65;2.50;;;;;;;;;;8330209;28;20037;-87
2022/05/27 01:02:57;;;;;;;7.13;2.35;;;;;;;;;;8330332;28;20449;-86
2022/05/27 01:07:00;;;;;;;4.75;2.70;;;;;;;;;;8325495;28;20060;-85
2022/05/27 01:11:13;;;;;;;5.22;2.40;;;;;;;;;;8331739;28;20041;-87
2022/05/27 01:15:34;;;;;;;2.90;2.28;;;;;;;;;;8330246;28;20429;-86
2022/05/27 01:20:26;;;;;;;6.07;2.60;;;;;;;;;;8323341;28;20409;-88
2022/05/27 01:24:44;;;;;;;5.78;2.70;;;;;;;;;;8298174;28;20148;-85
2022/05/27 01:28:50;;;;;;;7.28;2.80;;;;;;;;;;8316006;28;20136;-86
2022/05/27 01:33:07;;;;;;;3.88;2.63;;;;;;;;;;8323581;28;20041;-85
2022/05/27 01:37:14;;;;;;;6.30;2.55;;;;;;;;;;8327104;28;20049;-87
2022/05/27 01:41:28;;;;;;;6.38;2.60;;;;;;;;;;8325274;28;20042;-95
2022/05/27 01:45:39;;;;;;;6.30;2.70;;;;;;;;;;8334147;28;20511;-94
2022/05/27 01:49:48;;;;;;;3.73;2.30;;;;;;;;;;8328574;28;20054;-95
2022/05/27 01:53:58;;;;;;;4.03;2.65;;;;;;;;;;8327119;28;20136;-86
2022/05/27 01:58:06;;;;;;;3.47;2.40;;;;;;;;;;8326746;28;20053;-86
2022/05/27 02:02:13;;;;;;;7.03;3.22;;;;;;;;;;8327865;28;20449;-86
2022/05/27 02:06:21;;;;;;;5.63;2.92;;;;;;;;;;8326701;28;20041;-86
2022/05/27 02:10:29;;;;;;;3.67;2.72;;;;;;;;;;8327915;28;20448;-84
2022/05/27 02:14:41;;;;;;;5.32;3.15;;;;;;;;;;8336818;28;20163;-91
2022/05/27 02:18:49;;;;;;;4.47;2.72;;;;;;;;;;8331366;28;20121;-94
2022/05/27 02:22:57;;;;;;;7.80;3.17;;;;;;;;;;8328922;28;20061;-87
2022/05/27 02:27:06;;;;;;;5.95;2.60;;;;;;;;;;8333645;28;20057;-86
2022/05/27 02:31:13;;;;;;;4.90;2.95;;;;;;;;;;8335149;28;20095;-86
2022/05/27 02:35:23;;;;;;;8.13;2.65;;;;;;;;;;8332971;28;20045;-87
2022/05/27 02:39:28;;;;;;;6.50;2.78;;;;;;;;;;8333652;28;20124;-87
2022/05/27 02:43:52;;;;;;;4.45;2.85;;;;;;;;;;8337680;28;20049;-85
2022/05/27 02:48:04;;;;;;;7.75;2.90;;;;;;;;;;8330892;28;20049;-86
2022/05/27 02:52:17;;;;;;;4.18;2.60;;;;;;;;;;8329118;28;20500;-86
2022/05/27 02:56:25;;;;;;;4.72;2.65;;;;;;;;;;8338010;28;20045;-94
2022/05/27 03:00:30;;;;;;;5.22;2.72;;;;;;;;;;8331877;28;20470;-94
2022/05/27 03:04:33;;;;;;;5.63;2.63;;;;;;;;;;8332600;28;20041;-85
2022/05/27 03:08:46;;;;;;;3.33;2.63;;;;;;;;;;8332328;28;20050;-86
2022/05/27 03:13:01;;;;;;;4.45;2.63;;;;;;;;;;8332574;28;20045;-85
2022/05/27 03:17:16;;;;;;;5.95;2.97;;;;;;;;;;8328996;28;20406;-85
2022/05/27 03:21:27;;;;;;;6.60;2.70;;;;;;;;;;8325481;28;20050;-86
2022/05/27 03:25:41;;;;;;;6.95;3.00;;;;;;;;;;8327250;28;20045;-85
2022/05/27 03:29:51;;;;;;;6.75;2.90;;;;;;;;;;8328959;28;20095;-86
2022/05/27 03:34:05;;;;;;;4.97;2.80;;;;;;;;;;8328141;28;20457;-95
2022/05/27 03:38:13;;;;;;;7.25;3.42;;;;;;;;;;8332235;28;20103;-85
2022/05/27 03:42:19;;;;;;;4.30;2.58;;;;;;;;;;8331990;28;20532;-85
2022/05/27 03:46:32;;;;;;;6.10;2.83;;;;;;;;;;8325789;28;20042;-86
2022/05/27 03:50:35;;;;;;;6.03;2.83;;;;;;;;;;8329233;28;20453;-86
2022/05/27 03:54:38;;;;;;;6.68;3.00;;;;;;;;;;8326879;28;20049;-86
2022/05/27 03:58:40;;;;;;;4.78;2.75;;;;;;;;;;8320010;28;20135;-85
2022/05/27 04:02:46;;;;;;;5.38;3.08;;;;;;;;;;8329661;28;20049;-89
2022/05/27 04:06:49;;;;;;;6.10;2.75;;;;;;;;;;8333762;28;20128;-87
2022/05/27 04:10:52;;;;;;;5.03;2.88;;;;;;;;;;8325525;28;20057;-92
2022/05/27 04:14:54;;;;;;;4.03;2.55;;;;;;;;;;8294366;28;20065;-86
2022/05/27 04:18:59;;;;;;;6.22;3.50;;;;;;;;;;8331348;28;20110;-86
2022/05/27 04:23:02;;;;;;;4.07;2.70;;;;;;;;;;8329501;28;20068;-96
2022/05/27 04:27:10;;;;;;;6.75;3.17;;;;;;;;;;8319638;28;20409;-86
2022/05/27 04:31:12;;;;;;;6.47;2.80;;;;;;;;;;8331467;28;20476;-84
2022/05/27 04:35:17;;;;;;;4.18;2.75;;;;;;;;;;8332871;28;20042;-86
2022/05/27 04:39:20;;;;;;;6.10;3.00;;;;;;;;;;8330343;28;20116;-86
2022/05/27 04:43:25;;;;;;;7.38;3.25;;;;;;;;;;8324349;28;20042;-87
2022/05/27 04:47:30;;;;;;;5.47;2.72;;;;;;;;;;8328087;28;20076;-87
2022/05/27 04:51:35;;;;;;;6.78;2.90;;;;;;;;;;8321733;28;20057;-86
2022/05/27 04:55:39;;;;;;;6.85;3.35;;;;;;;;;;8328325;28;20037;-87
2022/05/27 04:59:46;;;;;;;4.78;3.00;;;;;;;;;;8325562;28;20056;-87
2022/05/27 05:03:49;;;;;;;5.45;3.10;;;;;;;;;;8322880;28;20047;-90
2022/05/27 05:07:58;;;;;;;4.95;2.90;;;;;;;;;;8328627;28;20055;-87
2022/05/27 05:12:01;;;;;;;7.05;3.60;;;;;;;;;;8317162;28;20453;-88
2022/05/27 05:16:07;;;;;;;5.15;2.53;;;;;;;;;;8330859;28;20045;-87
2022/05/27 05:20:13;;;;;;;5.70;2.72;;;;;;;;;;8315172;28;20056;-86
2022/05/27 05:24:18;;;;;;;6.43;2.65;;;;;;;;;;8321935;28;20132;-86
2022/05/27 05:28:21;;;;;;;5.05;2.70;;;;;;;;;;8334499;28;20053;-84
2022/05/27 05:32:25;;;;;;;10.30;3.45;;;;;;;;;;8342320;28;20118;-85
2022/05/27 05:36:28;;;;;;;3.83;2.50;;;;;;;;;;8333218;28;20125;-84
2022/05/27 05:40:34;;;;;;;5.10;2.72;;;;;;;;;;8322462;28;20055;-85
2022/05/27 05:44:38;;;;;;;5.07;2.67;;;;;;;;;;8328803;28;20048;-84
2022/05/27 05:48:44;;;;;;;5.32;2.60;;;;;;;;;;8320552;28;20494;-84
2022/05/27 05:52:47;;;;;;;8.05;2.40;;;;;;;;;;8324589;28;20148;-83
2022/05/27 05:56:53;;;;;;;6.22;2.85;;;;;;;;;;8323389;28;20509;-91
2022/05/27 06:00:55;;;;;;;4.85;2.42;;;;;;;;;;8329814;28;20050;-87
2022/05/27 06:04:59;;;;;;;5.80;2.35;;;;;;;;;;8326183;28;20053;-95
2022/05/27 06:09:01;;;;;;;3.25;2.40;;;;;;;;;;8324276;28;20049;-93
2022/05/27 06:13:06;;;;;;;3.45;2.22;;;;;;;;;;8326822;28;20049;-93
2022/05/27 06:17:09;;;;;;;4.85;2.45;;;;;;;;;;8325074;28;20049;-94
2022/05/27 06:21:14;;;;;;;4.97;2.30;;;;;;;;;;8330102;28;20049;-94
2022/05/27 06:25:17;;;;;;;11.27;2.72;;;;;;;;;;8322046;28;20053;-85
2022/05/27 06:38:02;;;;;;;6.03;2.22;;;;;;;;;;8317014;28;20046;-87
2022/05/27 06:42:07;;;;;;;3.80;2.25;;;;;;;;;;8327916;28;20053;-85
2022/05/27 06:46:13;;;;;;;5.07;2.38;;;;;;;;;;8327899;28;20041;-85
2022/05/27 06:50:15;;;;;;;3.28;2.10;;;;;;;;;;8322878;28;20145;-86
2022/05/27 06:54:19;;;;;;;2.83;1.90;;;;;;;;;;8315782;28;20053;-93
2022/05/27 06:58:22;;;;;;;5.13;2.00;;;;;;;;;;8326557;28;20141;-88
2022/05/27 07:02:28;;;;;;;5.35;1.80;;;;;;;;;;8318624;28;20037;-85
2022/05/27 07:06:34;;;;;;;3.65;1.95;;;;;;;;;;8326506;28;20044;-84
2022/05/27 07:10:37;;;;;;;7.32;1.88;;;;;;;;;;8330181;28;21296;-83
2022/05/27 07:14:41;;;;;;;5.50;1.88;;;;;;;;;;8328929;28;20041;-86
2022/05/27 07:18:46;;;;;;;3.40;1.50;;;;;;;;;;8324823;28;20103;-85
2022/05/27 07:22:48;;;;;;;4.68;2.15;;;;;;;;;;8329401;28;20500;-84
2022/05/27 07:26:53;;;;;;;5.57;2.28;;;;;;;;;;8332451;28;20111;-82
2022/05/27 07:31:01;;;;;;;4.40;2.15;;;;;;;;;;8328552;28;20414;-83
2022/05/27 07:35:08;;;;;;;5.43;2.58;;;;;;;;;;8331229;28;20501;-88
2022/05/27 07:39:19;;;;;;;10.68;2.90;;;;;;;;;;8333579;28;20064;-86
2022/05/27 07:43:27;;;;;;;7.15;3.10;;;;;;;;;;8329145;28;20253;-91
2022/05/27 07:47:36;;;;;;;13.43;4.63;;;;;;;;;;8326559;28;20037;-90
2022/05/27 07:51:44;;;;;;;5.93;3.72;;;;;;;;;;8324691;28;20049;-90
2022/05/27 07:55:50;;;;;;;4.90;2.55;;;;;;;;;;8326434;28;20666;-89
2022/05/27 08:00:10;;;;;;;7.88;3.00;;;;;;;;;;8330048;28;20053;-88
2022/05/27 08:04:14;;;;;;;6.75;2.95;;;;;;;;;;8321056;28;20496;-89
2022/05/27 08:08:19;;;;;;;8.63;3.85;;;;;;;;;;8323926;28;20041;-91
2022/05/27 08:12:23;;;;;;;9.70;4.53;;;;;;;;;;8327377;28;20041;-85
2022/05/27 08:16:27;;;;;;;5.40;3.22;;;;;;;;;;8328843;28;20038;-91
2022/05/27 08:20:33;;;;;;;4.88;2.30;;;;;;;;;;8328459;28;20045;-85
2022/05/27 08:24:38;;;;;;;4.75;2.60;;;;;;;;;;8321292;28;20053;-88
2022/05/27 08:28:42;;;;;;;7.68;3.40;;;;;;;;;;8330062;28;20398;-93
2022/05/27 08:32:48;;;;;;;6.30;2.65;;;;;;;;;;8327878;28;20051;-88
2022/05/27 08:41:51;;;;;;;3.97;2.20;;;;;;;;;;8329614;28;20401;-89
2022/05/27 08:46:07;;;;;;;4.47;2.10;;;;;;;;;;8326823;28;20312;-85
2022/05/27 08:50:23;;;;;;;3.97;1.90;;;;;;;;;;8326882;28;20485;-84
2022/05/27 08:54:30;;;;;;;5.68;2.40;;;;;;;;;;8324356;28;20104;-85
2022/05/27 09:03:05;;;;;;;6.30;2.40;;;;;;;;;;8320581;28;20050;-89
2022/05/27 09:07:26;;;;;;;5.10;2.28;;;;;;;;;;8323584;28;20045;-93
2022/05/27 09:11:40;;;;;;;5.60;2.42;;;;;;;;;;8324669;28;20509;-90
2022/05/27 09:15:53;;;;;;;6.07;2.13;;;;;;;;;;8323228;28;20496;-88
2022/05/27 09:20:01;;;;;;;8.00;2.30;;;;;;;;;;8324906;28;20440;-88
2022/05/27 09:24:17;;;;;;;5.57;2.70;;;;;;;;;;8322802;28;20470;-93
2022/05/27 09:28:28;;;;;;;6.68;2.63;;;;;;;;;;8325524;28;20164;-85
2022/05/27 09:32:46;;;;;;;8.32;2.40;;;;;;;;;;8320715;28;20088;-92
2022/05/27 09:36:55;;;;;;;6.53;3.72;;;;;;;;;;8318511;28;20083;-87
2022/05/27 09:41:01;;;;;;;5.78;2.17;;;;;;;;;;8318993;28;20037;-90
2022/05/27 09:45:07;;;;;;;13.63;3.25;;;;;;;;;;8320170;28;20129;-83
2022/05/27 09:49:13;;;;;;;6.70;3.03;;;;;;;;;;8323973;28;20037;-89
2022/05/27 09:53:20;;;;;;;5.90;2.67;;;;;;;;;;8314854;28;20104;-83
2022/05/27 09:57:26;;;;;;;7.82;3.30;;;;;;;;;;8325160;28;20489;-83
2022/05/27 10:01:30;;;;;;;10.27;4.18;;;;;;;;;;8323282;28;20418;-88
2022/05/27 10:05:35;;;;;;;12.30;4.60;;;;;;;;;;8323565;28;20409;-87
2022/05/27 10:09:38;;;;;;;8.48;3.75;;;;;;;;;;8320351;28;20045;-89
2022/05/27 10:13:41;;;;;;;8.70;4.38;;;;;;;;;;8316907;28;20083;-96
2022/05/27 10:17:46;;;;;;;11.40;3.70;;;;;;;;;;8328721;28;20044;-93
2022/05/27 10:21:53;;;;;;;4.10;2.13;;;;;;;;;;8313379;28;20045;-94
2022/05/27 10:25:56;;;;;;;6.07;2.83;;;;;;;;;;8322628;28;20385;-92
2022/05/27 10:30:01;;;;;;;8.25;2.47;;;;;;;;;;8324904;28;20398;-91
2022/05/27 10:34:04;;;;;;;11.05;3.13;;;;;;;;;;8334867;28;20124;-93
2022/05/27 10:38:47;;;;;;;7.85;3.90;;;;;;;;;;8325535;28;20045;-96
2022/05/27 10:42:59;;;;;;;5.20;3.53;;;;;;;;;;8330146;28;20107;-94
2022/05/27 10:47:02;;;;;;;5.75;3.20;;;;;;;;;;8332691;28;20053;-91
2022/05/27 10:51:12;;;;;;;7.00;3.10;;;;;;;;;;8319936;28;20575;-91
2022/05/27 10:55:25;;;;;;;5.88;3.00;;;;;;;;;;8327434;28;20046;-92
2022/05/27 11:04:14;;;;;;;6.13;3.92;;;;;;;;;;8323814;28;20045;-93
2022/05/27 11:08:26;;;;;;;8.82;4.00;;;;;;;;;;8319913;28;20075;-91
2022/05/27 11:17:26;;;;;;;12.02;7.22;;;;;;;;;;8330936;28;20042;-89
2022/05/27 11:21:55;;;;;;;7.28;4.90;;;;;;;;;;8328933;28;20387;-91
2022/05/27 11:26:08;;;;;;;10.35;3.95;;;;;;;;;;8318810;28;20410;-91
2022/05/27 11:30:24;;;;;;;11.68;4.03;;;;;;;;;;8327812;28;20095;-93
2022/05/27 11:34:29;;;;;;;7.57;3.58;;;;;;;;;;8325137;28;20497;-93
2022/05/27 11:38:58;;;;;;;5.97;2.90;;;;;;;;;;8332976;28;20132;-90
2022/05/27 11:43:37;;;;;;;4.07;2.50;;;;;;;;;;8332588;28;20144;-91
2022/05/27 11:48:08;;;;;;;4.40;3.03;;;;;;;;;;8336090;28;20042;-92
2022/05/27 11:52:47;;;;;;;6.75;3.20;;;;;;;;;;8314443;28;20084;-92
2022/05/27 11:57:23;;;;;;;3.70;2.17;;;;;;;;;;8344702;28;20049;-95
2022/05/27 12:01:49;;;;;;;3.83;2.53;;;;;;;;;;8349896;28;20042;-91
2022/05/27 12:05:56;;;;;;;11.75;8.15;;;;;;;;;;8341803;28;20045;-90
2022/05/27 12:10:14;;;;;;;11.55;8.95;;;;;;;;;;8334986;28;20128;-95
2022/05/27 12:14:24;;;;;;;6.35;3.50;;;;;;;;;;8331838;28;20145;-95
2022/05/27 12:18:34;;;;;;;4.90;2.83;;;;;;;;;;8342190;28;20060;-88
2022/05/27 12:22:40;;;;;;;4.90;3.00;;;;;;;;;;8336730;28;20045;-89
2022/05/27 12:26:44;;;;;;;5.95;3.10;;;;;;;;;;8356321;28;20499;-95
2022/05/27 12:31:08;;;;;;;6.60;3.42;;;;;;;;;;8345393;28;20383;-93
2022/05/27 12:35:29;;;;;;;7.03;3.63;;;;;;;;;;8349966;28;20097;-90
2022/05/27 12:39:42;;;;;;;6.95;3.63;;;;;;;;;;8346067;28;20049;-91
2022/05/27 12:44:01;;;;;;;9.80;5.00;;;;;;;;;;8352556;28;20038;-90
2022/05/27 12:48:12;;;;;;;12.32;5.40;;;;;;;;;;8343162;28;20076;-89
2022/05/27 12:52:55;;;;;;;4.53;2.60;;;;;;;;;;8342889;28;20060;-90
2022/05/27 13:01:29;;;;;;;6.90;4.07;;;;;;;;;;8330453;28;20394;-91
2022/05/27 13:06:05;;;;;;;5.03;2.83;;;;;;;;;;8327981;28;20046;-86
2022/05/27 13:10:50;;;;;;;4.22;2.63;;;;;;;;;;8338268;28;20045;-87
2022/05/27 13:14:56;;;;;;;2.75;1.92;;;;;;;;;;8312092;28;20056;-87
2022/05/27 13:19:01;;;;;;;3.72;2.35;;;;;;;;;;8330679;28;20110;-92
2022/05/27 13:23:14;;;;;;;4.35;2.25;;;;;;;;;;8327635;28;20413;-88
2022/05/27 13:27:26;;;;;;;3.78;2.13;;;;;;;;;;8327065;28;20503;-86
2022/05/27 13:31:41;;;;;;;1.95;1.70;;;;;;;;;;8317282;28;20042;-86
2022/05/27 13:35:48;;;;;;;2.88;1.80;;;;;;;;;;8328308;28;20390;-89
2022/05/27 13:39:56;;;;;;;2.90;1.55;;;;;;;;;;8322855;28;20053;-87
2022/05/27 13:44:01;;;;;;;2.70;1.83;;;;;;;;;;8312261;28;20045;-89
2022/05/27 13:48:11;;;;;;;2.35;1.70;;;;;;;;;;8316351;28;20128;-86
2022/05/27 13:52:20;;;;;;;2.75;2.00;;;;;;;;;;8315724;28;20050;-86
2022/05/27 13:56:29;;;;;;;2.25;1.60;;;;;;;;;;8329634;28;20124;-88
2022/05/27 14:05:21;;;;;;;3.00;1.90;;;;;;;;;;8334558;28;20081;-85
2022/05/27 14:09:36;;;;;;;4.95;2.65;;;;;;;;;;8324418;28;20140;-88
2022/05/27 14:13:51;;;;;;;4.30;2.38;;;;;;;;;;8335749;28;20068;-89
2022/05/27 14:17:55;;;;;;;2.85;2.05;;;;;;;;;;8343779;28;20494;-87
2022/05/27 14:26:39;;;;;;;4.88;2.63;;;;;;;;;;8338143;28;20076;-86
2022/05/27 14:30:50;;;;;;;3.60;2.08;;;;;;;;;;8333165;28;20410;-90
2022/05/27 14:34:56;;;;;;;4.50;2.60;;;;;;;;;;8328889;28;20808;-86
2022/05/27 14:39:06;;;;;;;5.57;2.65;;;;;;;;;;8327414;28;20049;-87
2022/05/27 14:43:42;;;;;;;6.57;3.05;;;;;;;;;;8327223;28;20041;-92
2022/05/27 14:47:51;;;;;;;6.38;3.17;;;;;;;;;;8332755;28;20041;-90
2022/05/27 14:51:55;;;;;;;6.53;3.10;;;;;;;;;;8323688;28;20066;-88
2022/05/27 14:56:02;;;;;;;8.65;3.17;;;;;;;;;;8304239;28;20056;-93
2022/05/27 15:00:11;;;;;;;8.20;2.67;;;;;;;;;;8300706;28;20100;-90
2022/05/27 15:04:27;;;;;;;3.30;1.92;;;;;;;;;;8310620;28;20053;-85
2022/05/27 15:08:33;;;;;;;3.88;2.30;;;;;;;;;;8304201;28;20072;-91
2022/05/27 15:12:37;;;;;;;3.47;2.25;;;;;;;;;;8302994;28;20048;-87
2022/05/27 15:16:41;;;;;;;7.03;3.95;;;;;;;;;;8301251;28;20112;-88
2022/05/27 15:20:50;;;;;;;5.45;2.90;;;;;;;;;;8303070;28;20046;-92
2022/05/27 15:24:58;;;;;;;6.50;3.00;;;;;;;;;;8306207;28;20072;-84
2022/05/27 15:33:37;;;;;;;5.82;2.70;;;;;;;;;;8314347;28;20328;-86
2022/05/27 15:37:40;;;;;;;3.88;2.40;;;;;;;;;;8331034;28;20068;-93
2022/05/27 15:41:43;;;;;;;6.30;2.60;;;;;;;;;;8320335;28;20107;-92
2022/05/27 15:45:49;;;;;;;3.88;2.50;;;;;;;;;;8325347;28;20038;-93
2022/05/27 15:49:53;;;;;;;6.85;3.15;;;;;;;;;;8310787;28;20033;-94
2022/05/27 15:54:02;;;;;;;8.95;4.35;;;;;;;;;;8302024;28;20390;-91
2022/05/27 15:58:06;;;;;;;6.75;4.20;;;;;;;;;;8328731;28;20045;-85
2022/05/27 16:02:13;;;;;;;6.45;3.55;;;;;;;;;;8334209;28;20091;-86
2022/05/27 16:06:19;;;;;;;9.93;4.15;;;;;;;;;;8335037;28;20061;-86
2022/05/27 16:10:28;;;;;;;6.00;3.40;;;;;;;;;;8332229;28;20045;-84
2022/05/27 16:14:31;;;;;;;8.93;3.20;;;;;;;;;;8336049;28;20072;-90
2022/05/27 16:18:39;;;;;;;6.47;3.55;;;;;;;;;;8337412;28;20167;-89
2022/05/27 16:22:44;;;;;;;5.75;3.38;;;;;;;;;;8338736;28;20042;-87
2022/05/27 16:26:48;;;;;;;8.45;3.58;;;;;;;;;;8338731;28;20049;-86
2022/05/27 16:30:50;;;;;;;9.55;3.38;;;;;;;;;;8334764;28;20099;-91
2022/05/27 16:34:56;;;;;;;7.85;3.20;;;;;;;;;;8334772;28;20041;-88
2022/05/27 16:38:59;;;;;;;8.38;3.72;;;;;;;;;;8330635;28;20049;-85
2022/05/27 16:43:03;;;;;;;6.63;3.72;;;;;;;;;;8328840;28;20095;-87
2022/05/27 16:47:06;;;;;;;6.88;3.47;;;;;;;;;;8327256;28;20047;-90
2022/05/27 16:51:11;;;;;;;10.90;6.45;;;;;;;;;;8335067;28;20510;-90
2022/05/27 16:55:15;;;;;;;9.02;5.47;;;;;;;;;;8334989;28;20058;-88
2022/05/27 16:59:20;;;;;;;7.20;4.15;;;;;;;;;;8334114;28;20046;-89
2022/05/27 17:03:27;;;;;;;8.07;4.00;;;;;;;;;;8333545;28;20049;-88
2022/05/27 17:07:32;;;;;;;8.07;3.95;;;;;;;;;;8332231;28;20072;-87
2022/05/27 17:11:35;;;;;;;6.10;3.65;;;;;;;;;;8332304;28;20049;-89
2022/05/27 17:15:40;;;;;;;9.73;4.18;;;;;;;;;;8332078;28;20050;-88
2022/05/27 17:19:43;;;;;;;7.00;3.88;;;;;;;;;;8331624;28;20500;-86
2022/05/27 17:23:48;;;;;;;6.60;4.10;;;;;;;;;;8332790;28;20490;-87
2022/05/27 17:27:51;;;;;;;8.25;3.83;;;;;;;;;;8333867;28;20124;-86
2022/05/27 17:31:54;;;;;;;6.45;4.18;;;;;;;;;;8335473;28;20049;-86
2022/05/27 17:35:58;;;;;;;6.43;4.45;;;;;;;;;;8332982;28;20633;-87
2022/05/27 17:40:05;;;;;;;6.53;3.95;;;;;;;;;;8332271;28;20094;-86
2022/05/27 17:44:08;;;;;;;6.10;4.03;;;;;;;;;;8341286;28;20053;-87
2022/05/27 17:52:36;;;;;;;8.18;3.90;;;;;;;;;;8334273;28;20460;-88
2022/05/27 17:56:42;;;;;;;5.25;3.20;;;;;;;;;;8334231;28;20045;-89
2022/05/27 18:00:45;;;;;;;5.70;3.88;;;;;;;;;;8333749;28;20504;-86
2022/05/27 18:04:51;;;;;;;6.20;3.53;;;;;;;;;;8332151;28;20139;-86
2022/05/27 18:08:55;;;;;;;7.78;4.22;;;;;;;;;;8332675;28;20029;-86
2022/05/27 18:13:01;;;;;;;5.80;3.50;;;;;;;;;;8334406;28;20058;-86
2022/05/27 18:17:04;;;;;;;9.70;4.25;;;;;;;;;;8336677;28;20095;-86
2022/05/27 18:21:09;;;;;;;5.63;3.80;;;;;;;;;;8334024;28;20485;-85
2022/05/27 18:25:14;;;;;;;13.50;6.93;;;;;;;;;;8325745;28;20046;-88
2022/05/27 18:29:21;;;;;;;14.70;6.72;;;;;;;;;;8333047;28;20041;-85
2022/05/27 18:33:25;;;;;;;36.53;20.88;;;;;;;;;;8336429;28;20068;-86
2022/05/27 18:37:29;;;;;;;15.18;6.93;;;;;;;;;;8340217;28;20050;-89
2022/05/27 18:41:34;;;;;;;12.80;5.10;;;;;;;;;;8337011;28;20049;-85
2022/05/27 18:45:41;;;;;;;9.90;5.50;;;;;;;;;;8333048;28;20053;-86
2022/05/27 18:49:47;;;;;;;7.90;5.30;;;;;;;;;;8343913;28;20120;-86
2022/05/27 18:53:55;;;;;;;13.10;7.68;;;;;;;;;;8346885;28;20137;-87
2022/05/27 18:58:20;;;;;;;12.18;7.15;;;;;;;;;;8330167;28;20512;-86
2022/05/27 19:02:42;;;;;;;11.60;6.75;;;;;;;;;;8335637;28;20041;-86
2022/05/27 19:06:52;;;;;;;8.75;5.53;;;;;;;;;;8341176;28;20046;-89
2022/05/27 19:11:18;;;;;;;8.05;5.90;;;;;;;;;;8309789;28;20075;-87
2022/05/27 19:15:24;;;;;;;11.02;6.38;;;;;;;;;;8339731;28;20543;-91
2022/05/27 19:23:53;;;;;;;8.77;6.35;;;;;;;;;;8338067;28;20053;-89
2022/05/27 19:28:11;;;;;;;11.38;6.55;;;;;;;;;;8331295;28;20065;-87
2022/05/27 19:32:24;;;;;;;12.25;6.68;;;;;;;;;;8339014;28;20048;-87
2022/05/27 19:36:33;;;;;;;7.85;5.13;;;;;;;;;;8338707;28;20065;-87
2022/05/27 19:40:43;;;;;;;11.25;6.20;;;;;;;;;;8337192;28;20056;-87
2022/05/27 19:44:54;;;;;;;9.50;6.38;;;;;;;;;;8336431;28;20128;-86
2022/05/27 19:49:01;;;;;;;12.25;6.55;;;;;;;;;;8338357;28;20052;-86
2022/05/27 19:53:05;;;;;;;12.10;6.60;;;;;;;;;;8337314;28;20092;-88
2022/05/27 20:01:27;;;;;;;9.60;6.40;;;;;;;;;;8304258;28;20494;-86
2022/05/27 20:05:31;;;;;;;10.45;6.15;;;;;;;;;;8342351;28;20051;-88
2022/05/27 20:09:41;;;;;;;12.38;5.22;;;;;;;;;;8338063;28;20041;-86
2022/05/27 20:13:45;;;;;;;7.50;4.65;;;;;;;;;;8328124;28;20463;-87
2022/05/27 20:17:49;;;;;;;9.38;4.80;;;;;;;;;;8323736;28;20235;-89
2022/05/27 20:21:53;;;;;;;8.07;5.03;;;;;;;;;;8326692;28;20470;-92
2022/05/27 20:25:58;;;;;;;7.82;4.95;;;;;;;;;;8330244;28;20048;-88
2022/05/27 20:30:01;;;;;;;9.30;4.65;;;;;;;;;;8332931;28;20048;-88
2022/05/27 20:34:22;;;;;;;10.63;5.10;;;;;;;;;;8334179;28;20106;-89
2022/05/27 20:38:27;;;;;;;7.57;4.72;;;;;;;;;;8343335;28;20049;-94
2022/05/27 20:42:32;;;;;;;9.20;4.95;;;;;;;;;;8334204;28;20136;-89
2022/05/27 20:46:36;;;;;;;7.85;4.95;;;;;;;;;;8328695;28;20485;-91
2022/05/27 20:50:39;;;;;;;9.07;4.95;;;;;;;;;;8332259;28;20094;-91
2022/05/27 20:54:43;;;;;;;6.57;4.32;;;;;;;;;;8332024;28;20057;-93
2022/05/27 20:58:50;;;;;;;8.50;4.47;;;;;;;;;;8329447;28;20041;-89
2022/05/27 21:02:54;;;;;;;8.90;4.38;;;;;;;;;;8332623;28;20485;-90
2022/05/27 21:06:58;;;;;;;6.97;4.40;;;;;;;;;;8325819;28;20413;-91
2022/05/27 21:11:01;;;;;;;8.15;4.30;;;;;;;;;;8331539;28;20048;-90
2022/05/27 21:15:06;;;;;;;9.02;5.13;;;;;;;;;;8330578;28;20092;-91
2022/05/27 21:19:11;;;;;;;9.80;4.75;;;;;;;;;;8327415;28;20482;-90
2022/05/27 21:23:14;;;;;;;11.63;4.88;;;;;;;;;;8331200;28;20056;-89
2022/05/27 21:27:17;;;;;;;7.97;4.88;;;;;;;;;;8329470;28;20115;-92
2022/05/27 21:31:23;;;;;;;8.65;4.95;;;;;;;;;;8324957;28;20137;-92
2022/05/27 21:35:26;;;;;;;9.30;5.22;;;;;;;;;;8330349;28;20049;-92
2022/05/27 21:39:29;;;;;;;9.07;5.18;;;;;;;;;;8324418;28;20060;-90
2022/05/27 21:43:33;;;;;;;8.60;4.78;;;;;;;;;;8314790;28;20132;-94
2022/05/27 21:47:37;;;;;;;7.07;4.40;;;;;;;;;;8331483;28;20482;-91
2022/05/27 21:51:40;;;;;;;12.60;5.40;;;;;;;;;;8323155;28;20139;-93
2022/05/27 21:55:43;;;;;;;7.90;4.55;;;;;;;;;;8331274;28;20088;-91
2022/05/27 21:59:46;;;;;;;6.50;4.35;;;;;;;;;;8327203;28;20046;-93
2022/05/27 22:03:51;;;;;;;7.32;4.20;;;;;;;;;;8327666;28;20059;-91
2022/05/27 22:07:54;;;;;;;8.40;4.30;;;;;;;;;;8331044;28;20056;-90
2022/05/27 22:16:17;;;;;;;8.07;4.20;;;;;;;;;;8326219;28;20191;-94
2022/05/27 22:20:21;;;;;;;8.13;4.13;;;;;;;;;;8330587;28;20080;-94
2022/05/27 22:24:24;;;;;;;7.65;4.15;;;;;;;;;;8326358;28;20080;-90
2022/05/27 22:28:27;;;;;;;7.88;4.30;;;;;;;;;;8333674;28;20045;-90
2022/05/27 22:32:30;;;;;;;8.15;3.95;;;;;;;;;;8334739;28;20482;-95
2022/05/27 22:36:34;;;;;;;6.40;4.35;;;;;;;;;;8338740;28;20076;-94
2022/05/27 22:40:37;;;;;;;10.23;4.07;;;;;;;;;;8324665;28;20045;-92
2022/05/27 22:44:40;;;;;;;7.35;4.38;;;;;;;;;;8330341;28;20041;-93
2022/05/27 22:48:43;;;;;;;5.88;4.20;;;;;;;;;;8338784;28;20115;-95
2022/05/27 22:52:47;;;;;;;8.05;4.30;;;;;;;;;;8337275;28;20119;-91
2022/05/27 22:56:50;;;;;;;7.70;4.43;;;;;;;;;;8345334;28;20505;-92
2022/05/27 23:00:53;;;;;;;7.07;4.07;;;;;;;;;;8343058;28;20446;-95
2022/05/27 23:04:59;;;;;;;6.35;4.10;;;;;;;;;;8344464;28;20136;-96
2022/05/27 23:09:03;;;;;;;11.88;4.90;;;;;;;;;;8348296;28;20071;-93
2022/05/27 23:21:48;;;;;;;8.20;4.57;;;;;;;;;;8333670;28;20073;-95
2022/05/27 23:25:55;;;;;;;7.90;4.65;;;;;;;;;;8336731;28;20489;-92
2022/05/27 23:29:58;;;;;;;10.65;4.80;;;;;;;;;;8333835;28;20116;-96
2022/05/27 23:34:02;;;;;;;6.28;4.20;;;;;;;;;;8337343;28;20140;-91
2022/05/27 23:38:06;;;;;;;9.20;4.43;;;;;;;;;;8346564;28;20053;-96
2022/05/27 23:42:17;;;;;;;11.82;4.40;;;;;;;;;;8343176;28;20045;-90
2022/05/27 23:46:26;;;;;;;8.50;4.37;;;;;;;;;;8350522;28;20049;-92
2022/05/27 23:50:29;;;;;;;8.23;4.70;;;;;;;;;;8349614;28;20500;-93
2022/05/27 23:54:34;;;;;;;9.82;4.20;;;;;;;;;;8343116;28;20133;-91
2022/05/27 23:58:39;;;;;;;8.95;4.45;;;;;;;;;;8339779;28;20049;-91
